Time;durP1;ratioP1;P1;durP2;ratioP2;P2;SDS_P1;SDS_P2;PMS_P1;PMS_P2;Temp;Humidity;BMP_temperature;BMP_pressure;BME280_temperature;BME280_humidity;BME280_pressure;Samples;Min_cycle;Max_cycle;Signal;HPM_P1;HPM_P2
2023/10/24 00:01:40;;;;;;;;;;;;;;;;;;6355770;28;20317;-90
2023/10/24 00:04:40;;;;;;;;;;;;;;;;;;6344463;28;19975;-90
2023/10/24 00:07:42;;;;;;;;;;;;;;;;;;6358290;28;19990;-90
2023/10/24 00:10:42;;;;;;;;;;;;;;;;;;6334663;28;19908;-90
2023/10/24 00:13:42;;;;;;;;;;;;;;;;;;6349519;28;19919;-90
2023/10/24 00:16:42;;;;;;;;;;;;;;;;;;6332951;28;19916;-90
2023/10/24 00:19:42;;;;;;;;;;;;;;;;;;6340636;28;19932;-90
2023/10/24 00:22:42;;;;;;;;;;;;;;;;;;6331784;28;19912;-90
2023/10/24 00:25:42;;;;;;;;;;;;;;;;;;6325362;28;20406;-90
2023/10/24 00:28:43;;;;;;;;;;;;;;;;;;6331400;28;19919;-90
2023/10/24 00:31:43;;;;;;;;;;;;;;;;;;6332123;28;19959;-90
2023/10/24 00:34:43;;;;;;;;;;;;;;;;;;6331607;28;19967;-90
2023/10/24 00:37:43;;;;;;;;;;;;;;;;;;6330198;28;19916;-89
2023/10/24 00:40:43;;;;;;;;;;;;;;;;;;6336470;28;20394;-90
2023/10/24 00:43:44;;;;;;;;;;;;;;;;;;6329535;28;19916;-89
2023/10/24 00:46:44;;;;;;;;;;;;;;;;;;6349309;28;20255;-90
2023/10/24 00:49:44;;;;;;;;;;;;;;;;;;6329145;28;19907;-90
2023/10/24 00:52:45;;;;;;;;;;;;;;;;;;6321817;28;19916;-90
2023/10/24 00:55:45;;;;;;;;;;;;;;;;;;6320715;28;19945;-90
2023/10/24 00:58:45;;;;;;;;;;;;;;;;;;6319384;28;19923;-89
2023/10/24 01:01:45;;;;;;;;;;;;;;;;;;6319840;28;19915;-90
2023/10/24 01:04:45;;;;;;;;;;;;;;;;;;6317690;28;19919;-91
2023/10/24 01:07:45;;;;;;;;;;;;;;;;;;6321520;28;20002;-90
2023/10/24 01:10:45;;;;;;;;;;;;;;;;;;6319981;28;19919;-90
2023/10/24 01:13:46;;;;;;;;;;;;;;;;;;6323273;28;19912;-90
2023/10/24 01:16:46;;;;;;;;;;;;;;;;;;6323696;28;20286;-90
2023/10/24 01:19:46;;;;;;;;;;;;;;;;;;6315945;28;19912;-91
2023/10/24 01:22:46;;;;;;;;;;;;;;;;;;6322899;28;20327;-89
2023/10/24 01:25:46;;;;;;;;;;;;;;;;;;6323820;28;19979;-91
2023/10/24 01:28:46;;;;;;;;;;;;;;;;;;6323100;28;19935;-91
2023/10/24 01:31:47;;;;;;;;;;;;;;;;;;6320936;28;20368;-89
2023/10/24 01:34:47;;;;;;;;;;;;;;;;;;6319056;28;19915;-89
2023/10/24 01:37:47;;;;;;;;;;;;;;;;;;6326585;28;20053;-88
2023/10/24 01:40:47;;;;;;;;;;;;;;;;;;6312053;28;19912;-89
2023/10/24 01:43:47;;;;;;;;;;;;;;;;;;6318849;28;20317;-89
2023/10/24 01:46:49;;;;;;;;;;;;;;;;;;6320286;28;19966;-89
2023/10/24 01:49:49;;;;;;;;;;;;;;;;;;6321093;28;19912;-89
2023/10/24 01:52:49;;;;;;;;;;;;;;;;;;6319645;28;20006;-89
2023/10/24 01:55:49;;;;;;;;;;;;;;;;;;6318514;28;20017;-89
2023/10/24 01:58:49;;;;;;;;;;;;;;;;;;6314916;28;20435;-90
2023/10/24 02:01:49;;;;;;;;;;;;;;;;;;6318136;28;19909;-89
2023/10/24 02:04:49;;;;;;;;;;;;;;;;;;6317795;28;19986;-89
2023/10/24 02:07:49;;;;;;;;;;;;;;;;;;6319656;28;19912;-90
2023/10/24 02:10:50;;;;;;;;;;;;;;;;;;6319752;28;20415;-90
2023/10/24 02:13:51;;;;;;;;;;;;;;;;;;6313616;28;19912;-89
2023/10/24 02:16:51;;;;;;;;;;;;;;;;;;6319803;28;19919;-89
2023/10/24 02:19:53;;;;;;;;;;;;;;;;;;6318834;28;20245;-90
2023/10/24 02:22:53;;;;;;;;;;;;;;;;;;6316911;28;19935;-89
2023/10/24 02:25:53;;;;;;;;;;;;;;;;;;6312021;28;20275;-90
2023/10/24 02:28:53;;;;;;;;;;;;;;;;;;6319869;28;20384;-90
2023/10/24 02:31:53;;;;;;;;;;;;;;;;;;6317988;28;19919;-89
2023/10/24 02:34:53;;;;;;;;;;;;;;;;;;6318683;28;19912;-90
2023/10/24 02:37:53;;;;;;;;;;;;;;;;;;6318312;28;19965;-89
2023/10/24 02:40:55;;;;;;;;;;;;;;;;;;6318737;28;19912;-89
2023/10/24 02:43:55;;;;;;;;;;;;;;;;;;6315661;28;19912;-90
2023/10/24 02:46:56;;;;;;;;;;;;;;;;;;6317896;28;19958;-90
2023/10/24 02:49:56;;;;;;;;;;;;;;;;;;6320108;28;19919;-90
2023/10/24 02:52:59;;;;;;;;;;;;;;;;;;6336572;28;20742;-89
2023/10/24 02:56:00;;;;;;;;;;;;;;;;;;6347700;28;19916;-90
2023/10/24 02:59:00;;;;;;;;;;;;;;;;;;6325302;28;20330;-90
2023/10/24 03:02:00;;;;;;;;;;;;;;;;;;6349510;28;20040;-89
2023/10/24 03:05:00;;;;;;;;;;;;;;;;;;6330664;28;19915;-90
2023/10/24 03:08:00;;;;;;;;;;;;;;;;;;6348917;28;19908;-90
2023/10/24 03:11:00;;;;;;;;;;;;;;;;;;6331836;28;20385;-90
2023/10/24 03:14:01;;;;;;;;;;;;;;;;;;6330064;28;20406;-90
2023/10/24 03:17:01;;;;;;;;;;;;;;;;;;6334966;28;19916;-90
2023/10/24 03:20:01;;;;;;;;;;;;;;;;;;6331468;28;19912;-90
2023/10/24 03:23:01;;;;;;;;;;;;;;;;;;6352072;28;19907;-91
2023/10/24 03:26:01;;;;;;;;;;;;;;;;;;6357797;28;19908;-91
2023/10/24 03:29:01;;;;;;;;;;;;;;;;;;6331662;28;19912;-90
2023/10/24 03:32:02;;;;;;;;;;;;;;;;;;6333926;28;19954;-90
2023/10/24 03:35:02;;;;;;;;;;;;;;;;;;6352136;28;19912;-90
2023/10/24 03:38:02;;;;;;;;;;;;;;;;;;6350024;28;20379;-90
2023/10/24 03:41:02;;;;;;;;;;;;;;;;;;6331213;28;20294;-90
2023/10/24 03:44:03;;;;;;;;;;;;;;;;;;6354347;27;19942;-92
2023/10/24 03:47:03;;;;;;;;;;;;;;;;;;6348579;28;20018;-90
2023/10/24 03:50:03;;;;;;;;;;;;;;;;;;6329950;28;19912;-90
2023/10/24 03:53:04;;;;;;;;;;;;;;;;;;6329352;28;19919;-90
2023/10/24 03:56:04;;;;;;;;;;;;;;;;;;6347551;28;19919;-90
2023/10/24 03:59:06;;;;;;;;;;;;;;;;;;6322349;28;19920;-90
2023/10/24 04:02:06;;;;;;;;;;;;;;;;;;6344022;28;19912;-90
2023/10/24 04:05:07;;;;;;;;;;;;;;;;;;6326454;28;19916;-90
2023/10/24 04:08:07;;;;;;;;;;;;;;;;;;6346897;28;19958;-90
2023/10/24 04:11:07;;;;;;;;;;;;;;;;;;6327105;28;19927;-90
2023/10/24 04:14:13;;;;;;;;;;;;;;;;;;6346945;28;20006;-90
2023/10/24 04:17:13;;;;;;;;;;;;;;;;;;6326345;28;20057;-89
2023/10/24 04:20:13;;;;;;;;;;;;;;;;;;6344954;28;19919;-89
2023/10/24 04:23:14;;;;;;;;;;;;;;;;;;6342870;28;19966;-90
2023/10/24 04:26:15;;;;;;;;;;;;;;;;;;6325589;28;20381;-89
2023/10/24 04:29:16;;;;;;;;;;;;;;;;;;6330054;28;20839;-89
2023/10/24 04:32:16;;;;;;;;;;;;;;;;;;6346175;28;19947;-89
2023/10/24 04:35:19;;;;;;;;;;;;;;;;;;6325240;28;19912;-89
2023/10/24 04:38:19;;;;;;;;;;;;;;;;;;6327576;28;19916;-83
2023/10/24 04:41:20;;;;;;;;;;;;;;;;;;6320686;28;19981;-83
2023/10/24 04:44:20;;;;;;;;;;;;;;;;;;6344502;28;19958;-83
2023/10/24 04:47:20;;;;;;;;;;;;;;;;;;6326425;28;20358;-82
2023/10/24 04:50:20;;;;;;;;;;;;;;;;;;6341259;28;20396;-82
2023/10/24 04:53:20;;;;;;;;;;;;;;;;;;6338624;28;19920;-82
2023/10/24 04:56:20;;;;;;;;;;;;;;;;;;6339393;28;20289;-83
2023/10/24 04:59:21;;;;;;;;;;;;;;;;;;6344421;28;20324;-88
2023/10/24 05:02:21;;;;;;;;;;;;;;;;;;6323174;28;19911;-88
2023/10/24 05:05:21;;;;;;;;;;;;;;;;;;6320715;28;19942;-87
2023/10/24 05:08:21;;;;;;;;;;;;;;;;;;6320144;28;19969;-88
2023/10/24 05:11:22;;;;;;;;;;;;;;;;;;6322400;28;19947;-89
2023/10/24 05:14:23;;;;;;;;;;;;;;;;;;6336855;28;19920;-88
2023/10/24 05:17:23;;;;;;;;;;;;;;;;;;6327556;28;19920;-90
2023/10/24 05:20:23;;;;;;;;;;;;;;;;;;6318338;28;19966;-89
2023/10/24 05:23:23;;;;;;;;;;;;;;;;;;6342803;28;19916;-89
2023/10/24 05:26:23;;;;;;;;;;;;;;;;;;6319814;28;19908;-89
2023/10/24 05:29:23;;;;;;;;;;;;;;;;;;6327839;28;19916;-90
2023/10/24 05:32:23;;;;;;;;;;;;;;;;;;6347793;28;19922;-90
2023/10/24 05:35:24;;;;;;;;;;;;;;;;;;6323544;28;19930;-88
2023/10/24 05:38:24;;;;;;;;;;;;;;;;;;6323565;28;19931;-89
2023/10/24 05:41:24;;;;;;;;;;;;;;;;;;6344355;28;19923;-88
2023/10/24 05:44:24;;;;;;;;;;;;;;;;;;6341914;28;20368;-88
2023/10/24 05:47:25;;;;;;;;;;;;;;;;;;6323290;28;19912;-89
2023/10/24 05:50:25;;;;;;;;;;;;;;;;;;6324845;28;20536;-89
2023/10/24 05:53:25;;;;;;;;;;;;;;;;;;6324957;28;19924;-89
2023/10/24 05:56:25;;;;;;;;;;;;;;;;;;6325289;28;19915;-88
2023/10/24 05:59:26;;;;;;;;;;;;;;;;;;6318043;28;19947;-89
2023/10/24 06:02:26;;;;;;;;;;;;;;;;;;6325528;28;20010;-89
2023/10/24 06:05:26;;;;;;;;;;;;;;;;;;6342954;28;19940;-88
2023/10/24 06:08:26;;;;;;;;;;;;;;;;;;6320017;28;19968;-89
2023/10/24 06:11:26;;;;;;;;;;;;;;;;;;6343096;28;19916;-89
2023/10/24 06:14:26;;;;;;;;;;;;;;;;;;6325329;28;20047;-89
2023/10/24 06:17:28;;;;;;;;;;;;;;;;;;6339705;28;20006;-89
2023/10/24 06:20:28;;;;;;;;;;;;;;;;;;6340986;28;20460;-89
2023/10/24 06:23:28;;;;;;;;;;;;;;;;;;6342354;28;19911;-90
2023/10/24 06:26:28;;;;;;;;;;;;;;;;;;6345908;28;19938;-89
2023/10/24 06:29:28;;;;;;;;;;;;;;;;;;6334692;28;19958;-88
2023/10/24 06:32:28;;;;;;;;;;;;;;;;;;6354315;27;20128;-89
2023/10/24 06:35:29;;;;;;;;;;;;;;;;;;6349506;28;19912;-89
2023/10/24 06:38:29;;;;;;;;;;;;;;;;;;6345566;27;20667;-88
2023/10/24 06:41:29;;;;;;;;;;;;;;;;;;6346202;28;19919;-88
2023/10/24 06:44:29;;;;;;;;;;;;;;;;;;6350115;28;20262;-88
2023/10/24 06:47:30;;;;;;;;;;;;;;;;;;6338977;28;19919;-88
2023/10/24 06:50:30;;;;;;;;;;;;;;;;;;6361743;28;19908;-88
2023/10/24 06:53:30;;;;;;;;;;;;;;;;;;6335909;28;20442;-89
2023/10/24 06:56:31;;;;;;;;;;;;;;;;;;6331352;28;19912;-89
2023/10/24 06:59:31;;;;;;;;;;;;;;;;;;6350976;28;19908;-89
2023/10/24 07:02:33;;;;;;;;;;;;;;;;;;6330296;28;19916;-89
2023/10/24 07:05:33;;;;;;;;;;;;;;;;;;6350380;28;20067;-89
2023/10/24 07:08:33;;;;;;;;;;;;;;;;;;6332482;28;19916;-89
2023/10/24 07:11:34;;;;;;;;;;;;;;;;;;6351324;28;20012;-89
2023/10/24 07:14:34;;;;;;;;;;;;;;;;;;6333086;28;20304;-89
2023/10/24 07:17:34;;;;;;;;;;;;;;;;;;6328450;28;19965;-89
2023/10/24 07:20:34;;;;;;;;;;;;;;;;;;6352243;28;19919;-90
2023/10/24 07:23:34;;;;;;;;;;;;;;;;;;6348770;28;19916;-89
2023/10/24 07:26:34;;;;;;;;;;;;;;;;;;6350435;28;19915;-89
2023/10/24 07:29:34;;;;;;;;;;;;;;;;;;6351665;28;20237;-89
2023/10/24 07:32:34;;;;;;;;;;;;;;;;;;6352362;27;19916;-89
2023/10/24 07:35:35;;;;;;;;;;;;;;;;;;6332695;28;19960;-89
2023/10/24 07:38:35;;;;;;;;;;;;;;;;;;6347805;28;19915;-89
2023/10/24 07:41:35;;;;;;;;;;;;;;;;;;6344815;28;19919;-89
2023/10/24 07:44:35;;;;;;;;;;;;;;;;;;6329221;28;19956;-90
2023/10/24 07:47:35;;;;;;;;;;;;;;;;;;6329243;28;19950;-90
2023/10/24 07:50:35;;;;;;;;;;;;;;;;;;6347177;28;19912;-89
2023/10/24 07:53:35;;;;;;;;;;;;;;;;;;6347414;28;19927;-89
2023/10/24 07:56:37;;;;;;;;;;;;;;;;;;6344907;28;19916;-89
2023/10/24 07:59:40;;;;;;;;;;;;;;;;;;6328844;28;20357;-88
2023/10/24 08:02:40;;;;;;;;;;;;;;;;;;6329578;28;20332;-89
2023/10/24 08:05:40;;;;;;;;;;;;;;;;;;6328703;28;19912;-89
2023/10/24 08:08:42;;;;;;;;;;;;;;;;;;6347060;28;19912;-89
2023/10/24 08:11:43;;;;;;;;;;;;;;;;;;6328801;28;19922;-89
2023/10/24 08:14:43;;;;;;;;;;;;;;;;;;6346765;28;20277;-88
2023/10/24 08:17:43;;;;;;;;;;;;;;;;;;6319772;28;20022;-89
2023/10/24 08:20:43;;;;;;;;;;;;;;;;;;6326337;28;20381;-89
2023/10/24 08:23:43;;;;;;;;;;;;;;;;;;6330241;28;19912;-89
2023/10/24 08:26:43;;;;;;;;;;;;;;;;;;6348144;28;19911;-89
2023/10/24 08:29:46;;;;;;;;;;;;;;;;;;6325945;28;19912;-89
2023/10/24 08:32:46;;;;;;;;;;;;;;;;;;6348775;27;20267;-89
2023/10/24 08:35:47;;;;;;;;;;;;;;;;;;6347240;28;19908;-89
2023/10/24 08:38:47;;;;;;;;;;;;;;;;;;6317553;28;20010;-89
2023/10/24 08:41:48;;;;;;;;;;;;;;;;;;6346305;28;19938;-89
2023/10/24 08:44:49;;;;;;;;;;;;;;;;;;6346680;28;19915;-89
2023/10/24 08:47:49;;;;;;;;;;;;;;;;;;6346720;28;19908;-90
2023/10/24 08:50:49;;;;;;;;;;;;;;;;;;6347174;28;19908;-90
2023/10/24 08:53:49;;;;;;;;;;;;;;;;;;6339748;28;19926;-90
2023/10/24 08:56:49;;;;;;;;;;;;;;;;;;6313243;28;19916;-89
2023/10/24 08:59:49;;;;;;;;;;;;;;;;;;6346374;28;19916;-90
2023/10/24 09:02:49;;;;;;;;;;;;;;;;;;6324081;28;19998;-90
2023/10/24 09:05:50;;;;;;;;;;;;;;;;;;6346019;28;20407;-90
2023/10/24 09:08:50;;;;;;;;;;;;;;;;;;6342630;28;19908;-89
2023/10/24 09:11:50;;;;;;;;;;;;;;;;;;6327869;28;19919;-90
2023/10/24 09:14:50;;;;;;;;;;;;;;;;;;6346729;28;19915;-90
2023/10/24 09:17:50;;;;;;;;;;;;;;;;;;6345555;28;19916;-90
2023/10/24 09:20:50;;;;;;;;;;;;;;;;;;6345540;28;20034;-90
2023/10/24 09:23:51;;;;;;;;;;;;;;;;;;6328046;28;19946;-89
2023/10/24 09:26:51;;;;;;;;;;;;;;;;;;6345109;28;19918;-90
2023/10/24 09:29:51;;;;;;;;;;;;;;;;;;6345853;28;19922;-90
2023/10/24 09:32:51;;;;;;;;;;;;;;;;;;6323392;28;20385;-88
2023/10/24 09:35:52;;;;;;;;;;;;;;;;;;6344919;28;19930;-88
2023/10/24 09:38:52;;;;;;;;;;;;;;;;;;6326757;28;19923;-88
2023/10/24 09:41:52;;;;;;;;;;;;;;;;;;6316901;28;20003;-88
2023/10/24 09:44:52;;;;;;;;;;;;;;;;;;6344077;28;19912;-88
2023/10/24 09:47:52;;;;;;;;;;;;;;;;;;6326672;28;20464;-88
2023/10/24 09:50:52;;;;;;;;;;;;;;;;;;6345200;28;19916;-88
2023/10/24 09:53:52;;;;;;;;;;;;;;;;;;6325913;28;20412;-88
2023/10/24 09:56:52;;;;;;;;;;;;;;;;;;6325430;28;19924;-88
2023/10/24 09:59:55;;;;;;;;;;;;;;;;;;6342641;28;19916;-89
2023/10/24 10:02:58;;;;;;;;;;;;;;;;;;6325311;28;19908;-89
2023/10/24 10:05:58;;;;;;;;;;;;;;;;;;6325076;28;19908;-89
2023/10/24 10:08:58;;;;;;;;;;;;;;;;;;6320431;28;19916;-89
2023/10/24 10:12:01;;;;;;;;;;;;;;;;;;6324417;28;19919;-88
2023/10/24 10:15:01;;;;;;;;;;;;;;;;;;6342341;27;20327;-89
2023/10/24 10:18:01;;;;;;;;;;;;;;;;;;6342791;28;19947;-89
2023/10/24 10:21:01;;;;;;;;;;;;;;;;;;6323676;28;20464;-89
2023/10/24 10:24:02;;;;;;;;;;;;;;;;;;6324449;28;19908;-89
2023/10/24 10:27:02;;;;;;;;;;;;;;;;;;6336352;28;19908;-88
2023/10/24 10:30:02;;;;;;;;;;;;;;;;;;6341797;28;20289;-88
2023/10/24 10:33:02;;;;;;;;;;;;;;;;;;6322499;28;19947;-88
2023/10/24 10:36:04;;;;;;;;;;;;;;;;;;6328026;28;19908;-88
2023/10/24 10:39:09;;;;;;;;;;;;;;;;;;6316469;28;19919;-88
2023/10/24 10:42:09;;;;;;;;;;;;;;;;;;6313244;28;19965;-88
2023/10/24 10:45:09;;;;;;;;;;;;;;;;;;6323575;28;19912;-88
2023/10/24 10:48:09;;;;;;;;;;;;;;;;;;6314661;28;19961;-88
2023/10/24 10:51:09;;;;;;;;;;;;;;;;;;6324196;28;19911;-89
2023/10/24 10:54:09;;;;;;;;;;;;;;;;;;6341851;28;19920;-88
2023/10/24 10:57:09;;;;;;;;;;;;;;;;;;6347931;28;19919;-89
2023/10/24 11:00:10;;;;;;;;;;;;;;;;;;6316748;28;19916;-89
2023/10/24 11:03:10;;;;;;;;;;;;;;;;;;6335849;28;19912;-89
2023/10/24 11:06:10;;;;;;;;;;;;;;;;;;6340139;28;19923;-89
2023/10/24 11:09:10;;;;;;;;;;;;;;;;;;6321417;28;19912;-89
2023/10/24 11:12:11;;;;;;;;;;;;;;;;;;6323574;28;19926;-89
2023/10/24 11:15:13;;;;;;;;;;;;;;;;;;6323429;28;19922;-89
2023/10/24 11:18:13;;;;;;;;;;;;;;;;;;6326257;28;19924;-87
2023/10/24 11:21:13;;;;;;;;;;;;;;;;;;6340554;28;19960;-88
2023/10/24 11:24:14;;;;;;;;;;;;;;;;;;6346986;28;19915;-87
2023/10/24 11:27:14;;;;;;;;;;;;;;;;;;6346779;28;19922;-87
2023/10/24 11:30:14;;;;;;;;;;;;;;;;;;6346270;28;19923;-88
2023/10/24 11:33:14;;;;;;;;;;;;;;;;;;6324361;28;19916;-88
2023/10/24 11:36:15;;;;;;;;;;;;;;;;;;6347185;28;19920;-89
2023/10/24 11:39:15;;;;;;;;;;;;;;;;;;6344515;28;20343;-88
2023/10/24 11:42:16;;;;;;;;;;;;;;;;;;6343635;27;19935;-87
2023/10/24 11:45:16;;;;;;;;;;;;;;;;;;6322327;28;19916;-87
2023/10/24 11:48:16;;;;;;;;;;;;;;;;;;6326884;28;19916;-89
2023/10/24 11:51:17;;;;;;;;;;;;;;;;;;6323927;28;19962;-88
2023/10/24 11:54:17;;;;;;;;;;;;;;;;;;6338914;28;19924;-89
2023/10/24 11:57:17;;;;;;;;;;;;;;;;;;6340126;28;19927;-87
2023/10/24 12:00:18;;;;;;;;;;;;;;;;;;6326134;28;20004;-88
2023/10/24 12:03:18;;;;;;;;;;;;;;;;;;6325745;28;19915;-86
2023/10/24 12:06:18;;;;;;;;;;;;;;;;;;6322941;28;19912;-87
2023/10/24 12:09:18;;;;;;;;;;;;;;;;;;6343745;28;19960;-88
2023/10/24 12:12:19;;;;;;;;;;;;;;;;;;6343948;28;20029;-86
2023/10/24 12:15:19;;;;;;;;;;;;;;;;;;6325991;28;20058;-86
2023/10/24 12:18:19;;;;;;;;;;;;;;;;;;6317864;28;19966;-86
2023/10/24 12:21:19;;;;;;;;;;;;;;;;;;6324553;28;19919;-86
2023/10/24 12:24:20;;;;;;;;;;;;;;;;;;6344546;28;19911;-86
2023/10/24 12:27:20;;;;;;;;;;;;;;;;;;6336219;28;20334;-87
2023/10/24 12:30:20;;;;;;;;;;;;;;;;;;6343339;28;19915;-87
2023/10/24 12:33:20;;;;;;;;;;;;;;;;;;6323178;28;20352;-87
2023/10/24 12:36:20;;;;;;;;;;;;;;;;;;6341518;28;19961;-86
2023/10/24 12:39:21;;;;;;;;;;;;;;;;;;6321667;28;19915;-86
2023/10/24 12:42:21;;;;;;;;;;;;;;;;;;6322478;28;19919;-87
2023/10/24 12:45:21;;;;;;;;;;;;;;;;;;6333248;28;20085;-87
2023/10/24 12:48:21;;;;;;;;;;;;;;;;;;6338872;28;19916;-86
2023/10/24 12:51:21;;;;;;;;;;;;;;;;;;6344975;28;20406;-87
2023/10/24 12:54:22;;;;;;;;;;;;;;;;;;6338645;28;19923;-88
2023/10/24 12:57:22;;;;;;;;;;;;;;;;;;6339276;28;19943;-86
2023/10/24 13:00:22;;;;;;;;;;;;;;;;;;6340666;28;19966;-86
2023/10/24 13:03:23;;;;;;;;;;;;;;;;;;6340178;28;20360;-86
2023/10/24 13:06:23;;;;;;;;;;;;;;;;;;6336399;28;19926;-87
2023/10/24 13:09:27;;;;;;;;;;;;;;;;;;6336228;28;19942;-87
2023/10/24 13:12:27;;;;;;;;;;;;;;;;;;6340137;28;19916;-88
2023/10/24 13:15:27;;;;;;;;;;;;;;;;;;6342270;28;19915;-89
2023/10/24 13:18:29;;;;;;;;;;;;;;;;;;6322051;28;19919;-86
2023/10/24 13:21:29;;;;;;;;;;;;;;;;;;6344423;28;19954;-85
2023/10/24 13:24:30;;;;;;;;;;;;;;;;;;6340508;28;20374;-85
2023/10/24 13:27:30;;;;;;;;;;;;;;;;;;6342932;28;19916;-87
2023/10/24 13:30:31;;;;;;;;;;;;;;;;;;6319951;28;19966;-87
2023/10/24 13:33:32;;;;;;;;;;;;;;;;;;6329495;28;19919;-87
2023/10/24 13:36:32;;;;;;;;;;;;;;;;;;6327716;28;19961;-87
2023/10/24 13:39:32;;;;;;;;;;;;;;;;;;6320482;28;19918;-87
2023/10/24 13:42:33;;;;;;;;;;;;;;;;;;6337579;28;19923;-88
2023/10/24 13:45:33;;;;;;;;;;;;;;;;;;6328370;28;19944;-87
2023/10/24 13:48:33;;;;;;;;;;;;;;;;;;6327485;28;20293;-87
2023/10/24 13:51:33;;;;;;;;;;;;;;;;;;6326384;28;19954;-87
2023/10/24 13:54:34;;;;;;;;;;;;;;;;;;6344803;28;19955;-87
2023/10/24 13:57:34;;;;;;;;;;;;;;;;;;6327490;28;20419;-87
2023/10/24 14:00:34;;;;;;;;;;;;;;;;;;6327956;28;19920;-87
2023/10/24 14:03:35;;;;;;;;;;;;;;;;;;6322896;28;19990;-87
2023/10/24 14:06:35;;;;;;;;;;;;;;;;;;6344244;28;20284;-85
2023/10/24 14:09:35;;;;;;;;;;;;;;;;;;6342653;28;19907;-85
2023/10/24 14:12:36;;;;;;;;;;;;;;;;;;6327741;28;19915;-86
2023/10/24 14:15:36;;;;;;;;;;;;;;;;;;6326582;28;19912;-86
2023/10/24 14:18:36;;;;;;;;;;;;;;;;;;6322772;28;19919;-89
2023/10/24 14:21:36;;;;;;;;;;;;;;;;;;6338519;28;19912;-89
2023/10/24 14:24:36;;;;;;;;;;;;;;;;;;6321117;28;20350;-88
2023/10/24 14:27:37;;;;;;;;;;;;;;;;;;6322802;28;20385;-86
2023/10/24 14:30:37;;;;;;;;;;;;;;;;;;6319182;28;19912;-86
2023/10/24 14:33:37;;;;;;;;;;;;;;;;;;6344536;28;19912;-86
2023/10/24 14:36:40;;;;;;;;;;;;;;;;;;6327286;28;19912;-86
2023/10/24 14:39:41;;;;;;;;;;;;;;;;;;6325598;28;19937;-86
2023/10/24 14:42:41;;;;;;;;;;;;;;;;;;6336206;28;19916;-86
2023/10/24 14:45:41;;;;;;;;;;;;;;;;;;6341626;28;20293;-86
2023/10/24 14:48:41;;;;;;;;;;;;;;;;;;6337177;28;20339;-86
2023/10/24 14:51:41;;;;;;;;;;;;;;;;;;6334166;28;19912;-86
2023/10/24 14:54:41;;;;;;;;;;;;;;;;;;6373517;27;19908;-85
2023/10/24 14:57:41;;;;;;;;;;;;;;;;;;6364663;27;19927;-85
2023/10/24 15:00:44;;;;;;;;;;;;;;;;;;6363465;27;19912;-86
2023/10/24 15:03:45;;;;;;;;;;;;;;;;;;6382835;27;19915;-87
2023/10/24 15:06:45;;;;;;;;;;;;;;;;;;6365974;27;19912;-84
2023/10/24 15:09:45;;;;;;;;;;;;;;;;;;6372756;27;19907;-88
2023/10/24 15:12:45;;;;;;;;;;;;;;;;;;6349558;28;19912;-86
2023/10/24 15:15:45;;;;;;;;;;;;;;;;;;6353715;28;19937;-85
2023/10/24 15:18:45;;;;;;;;;;;;;;;;;;6371347;27;19915;-85
2023/10/24 15:21:45;;;;;;;;;;;;;;;;;;6338893;28;19922;-85
2023/10/24 15:24:46;;;;;;;;;;;;;;;;;;6363203;28;19933;-87
2023/10/24 15:27:46;;;;;;;;;;;;;;;;;;6363224;28;19916;-85
2023/10/24 15:30:46;;;;;;;;;;;;;;;;;;6360281;28;19986;-87
2023/10/24 15:33:47;;;;;;;;;;;;;;;;;;6375972;28;19922;-86
2023/10/24 15:36:49;;;;;;;;;;;;;;;;;;6360186;27;19902;-87
2023/10/24 15:39:50;;;;;;;;;;;;;;;;;;6345635;28;19989;-86
2023/10/24 15:42:50;;;;;;;;;;;;;;;;;;6328825;28;19947;-86
2023/10/24 15:45:50;;;;;;;;;;;;;;;;;;6343402;28;19908;-86
2023/10/24 15:48:53;;;;;;;;;;;;;;;;;;6324323;28;19923;-86
2023/10/24 15:51:53;;;;;;;;;;;;;;;;;;6340416;28;19919;-88
2023/10/24 15:54:53;;;;;;;;;;;;;;;;;;6321170;28;19916;-87
2023/10/24 15:57:55;;;;;;;;;;;;;;;;;;6341718;28;19926;-87
2023/10/24 16:00:55;;;;;;;;;;;;;;;;;;6344581;28;20018;-87
2023/10/24 16:03:55;;;;;;;;;;;;;;;;;;6322749;28;19933;-87
2023/10/24 16:06:56;;;;;;;;;;;;;;;;;;6327836;28;19922;-86
2023/10/24 16:09:57;;;;;;;;;;;;;;;;;;6316887;28;19923;-87
2023/10/24 16:12:57;;;;;;;;;;;;;;;;;;6340033;28;20002;-87
2023/10/24 16:15:57;;;;;;;;;;;;;;;;;;6345771;28;19912;-89
2023/10/24 16:18:58;;;;;;;;;;;;;;;;;;6326834;28;19915;-89
2023/10/24 16:21:58;;;;;;;;;;;;;;;;;;6313542;28;19916;-89
2023/10/24 16:24:58;;;;;;;;;;;;;;;;;;6327794;28;19908;-88
2023/10/24 16:27:58;;;;;;;;;;;;;;;;;;6346774;28;19912;-88
2023/10/24 16:30:59;;;;;;;;;;;;;;;;;;6320442;27;19915;-89
2023/10/24 16:33:59;;;;;;;;;;;;;;;;;;6345221;28;20018;-88
2023/10/24 16:36:59;;;;;;;;;;;;;;;;;;6326761;28;19922;-87
2023/10/24 16:39:59;;;;;;;;;;;;;;;;;;6341974;27;20021;-87
2023/10/24 16:42:59;;;;;;;;;;;;;;;;;;6322101;28;19935;-88
2023/10/24 16:45:59;;;;;;;;;;;;;;;;;;6321542;28;19919;-88
2023/10/24 16:48:59;;;;;;;;;;;;;;;;;;6323454;28;19920;-87
2023/10/24 16:52:00;;;;;;;;;;;;;;;;;;6345505;28;19912;-87
2023/10/24 16:55:00;;;;;;;;;;;;;;;;;;6326756;28;20342;-87
2023/10/24 16:58:00;;;;;;;;;;;;;;;;;;6320267;28;19926;-88
2023/10/24 17:01:00;;;;;;;;;;;;;;;;;;6325768;28;19915;-86
2023/10/24 17:04:01;;;;;;;;;;;;;;;;;;6323072;28;20395;-87
2023/10/24 17:07:01;;;;;;;;;;;;;;;;;;6320594;28;19916;-87
2023/10/24 17:10:01;;;;;;;;;;;;;;;;;;6327117;28;19916;-87
2023/10/24 17:13:01;;;;;;;;;;;;;;;;;;6326864;28;19919;-87
2023/10/24 17:16:01;;;;;;;;;;;;;;;;;;6340963;28;20007;-87
2023/10/24 17:19:03;;;;;;;;;;;;;;;;;;6323741;28;19911;-88
2023/10/24 17:22:03;;;;;;;;;;;;;;;;;;6344238;28;19916;-87
2023/10/24 17:25:03;;;;;;;;;;;;;;;;;;6314184;28;19908;-87
2023/10/24 17:28:04;;;;;;;;;;;;;;;;;;6324730;28;20357;-88
2023/10/24 17:31:04;;;;;;;;;;;;;;;;;;6327189;27;19954;-87
2023/10/24 17:34:04;;;;;;;;;;;;;;;;;;6328023;28;19918;-87
2023/10/24 17:37:04;;;;;;;;;;;;;;;;;;6323431;28;19920;-87
2023/10/24 17:40:05;;;;;;;;;;;;;;;;;;6323987;28;20431;-87
2023/10/24 17:43:05;;;;;;;;;;;;;;;;;;6345121;27;20369;-86
2023/10/24 17:46:06;;;;;;;;;;;;;;;;;;6351180;27;19919;-87
2023/10/24 17:49:06;;;;;;;;;;;;;;;;;;6343160;28;19915;-87
2023/10/24 17:52:06;;;;;;;;;;;;;;;;;;6320522;28;20374;-88
2023/10/24 17:55:06;;;;;;;;;;;;;;;;;;6322220;28;19919;-88
2023/10/24 17:58:06;;;;;;;;;;;;;;;;;;6323715;28;19927;-85
2023/10/24 18:01:06;;;;;;;;;;;;;;;;;;6343246;28;19919;-86
2023/10/24 18:04:08;;;;;;;;;;;;;;;;;;6320937;28;20724;-85
2023/10/24 18:07:08;;;;;;;;;;;;;;;;;;6339823;28;19908;-86
2023/10/24 18:10:09;;;;;;;;;;;;;;;;;;6324671;28;19917;-86
2023/10/24 18:13:11;;;;;;;;;;;;;;;;;;6339619;28;19916;-86
2023/10/24 18:16:11;;;;;;;;;;;;;;;;;;6339677;28;19965;-86
2023/10/24 18:19:12;;;;;;;;;;;;;;;;;;6340794;28;19920;-86
2023/10/24 18:22:12;;;;;;;;;;;;;;;;;;6310430;28;20014;-86
2023/10/24 18:25:12;;;;;;;;;;;;;;;;;;6337194;27;19922;-85
2023/10/24 18:28:12;;;;;;;;;;;;;;;;;;6336861;28;19912;-84
2023/10/24 18:31:12;;;;;;;;;;;;;;;;;;6320269;28;20002;-83
2023/10/24 18:34:12;;;;;;;;;;;;;;;;;;6322282;28;19919;-85
2023/10/24 18:37:16;;;;;;;;;;;;;;;;;;6342589;28;20362;-85
2023/10/24 18:40:18;;;;;;;;;;;;;;;;;;6340835;28;19911;-84
2023/10/24 18:43:18;;;;;;;;;;;;;;;;;;6330652;28;19912;-85
2023/10/24 18:46:18;;;;;;;;;;;;;;;;;;6321450;28;19998;-85
2023/10/24 18:49:18;;;;;;;;;;;;;;;;;;6317426;28;19934;-86
2023/10/24 18:52:19;;;;;;;;;;;;;;;;;;6314295;28;20002;-87
2023/10/24 18:55:19;;;;;;;;;;;;;;;;;;6321255;28;20323;-86
2023/10/24 18:58:19;;;;;;;;;;;;;;;;;;6341457;28;19919;-87
2023/10/24 19:01:19;;;;;;;;;;;;;;;;;;6323844;28;19950;-86
2023/10/24 19:04:19;;;;;;;;;;;;;;;;;;6341946;28;20003;-88
2023/10/24 19:07:19;;;;;;;;;;;;;;;;;;6332960;28;19962;-90
2023/10/24 19:10:19;;;;;;;;;;;;;;;;;;6323255;28;19911;-90
2023/10/24 19:13:20;;;;;;;;;;;;;;;;;;6311269;28;20358;-89
2023/10/24 19:16:20;;;;;;;;;;;;;;;;;;6335635;28;20433;-90
2023/10/24 19:19:20;;;;;;;;;;;;;;;;;;6341358;28;20018;-90
2023/10/24 19:22:20;;;;;;;;;;;;;;;;;;6341505;28;19934;-90
2023/10/24 19:25:20;;;;;;;;;;;;;;;;;;6323065;28;19915;-90
2023/10/24 19:28:20;;;;;;;;;;;;;;;;;;6318005;28;20253;-90
2023/10/24 19:31:21;;;;;;;;;;;;;;;;;;6338415;28;19920;-89
2023/10/24 19:34:21;;;;;;;;;;;;;;;;;;6344987;28;19916;-88
2023/10/24 19:37:21;;;;;;;;;;;;;;;;;;6324470;28;19974;-90
2023/10/24 19:40:21;;;;;;;;;;;;;;;;;;6345907;27;20045;-88
2023/10/24 19:43:21;;;;;;;;;;;;;;;;;;6321060;28;19916;-89
2023/10/24 19:46:24;;;;;;;;;;;;;;;;;;6327344;28;19977;-90
2023/10/24 19:49:25;;;;;;;;;;;;;;;;;;6340862;28;19965;-89
2023/10/24 19:52:25;;;;;;;;;;;;;;;;;;6346239;28;19932;-88
2023/10/24 19:55:25;;;;;;;;;;;;;;;;;;6341334;28;20402;-89
2023/10/24 19:58:25;;;;;;;;;;;;;;;;;;6318414;28;19923;-89
2023/10/24 20:01:25;;;;;;;;;;;;;;;;;;6326212;28;19908;-89
2023/10/24 20:04:26;;;;;;;;;;;;;;;;;;6327168;28;19950;-88
2023/10/24 20:07:26;;;;;;;;;;;;;;;;;;6343683;28;19918;-88
2023/10/24 20:10:26;;;;;;;;;;;;;;;;;;6340028;28;19916;-89
2023/10/24 20:13:26;;;;;;;;;;;;;;;;;;6321029;28;20720;-89
2023/10/24 20:16:26;;;;;;;;;;;;;;;;;;6339574;28;19926;-90
2023/10/24 20:19:26;;;;;;;;;;;;;;;;;;6338923;28;19939;-85
2023/10/24 20:22:26;;;;;;;;;;;;;;;;;;6326162;28;20619;-85
2023/10/24 20:25:26;;;;;;;;;;;;;;;;;;6325747;28;19960;-85
2023/10/24 20:28:27;;;;;;;;;;;;;;;;;;6324546;28;19911;-85
2023/10/24 20:31:27;;;;;;;;;;;;;;;;;;6341186;28;19912;-85